createdAt,value
2018-08-10T00:00:33.001Z,17.54
2018-08-10T00:01:39.013Z,17.52
2018-08-10T00:02:45.518Z,17.41
2018-08-10T00:03:51.999Z,17.42
2018-08-10T00:04:58.481Z,17.56
2018-08-10T00:06:04.972Z,17.61
2018-08-10T00:07:11.460Z,17.54
2018-08-10T00:08:17.957Z,17.49
2018-08-10T00:09:24.463Z,17.42
2018-08-10T00:10:30.924Z,17.31
2018-08-10T00:11:37.421Z,17.25
2018-08-10T00:12:43.899Z,17.22
2018-08-10T00:13:50.388Z,17.21
2018-08-10T00:14:56.880Z,17.19
2018-08-10T00:16:03.365Z,17.16
2018-08-10T00:17:09.839Z,17.14
2018-08-10T00:18:16.329Z,17.11
2018-08-10T00:19:22.826Z,17.09
2018-08-10T00:20:29.297Z,17.15
2018-08-10T00:21:35.782Z,17.12
2018-08-10T00:22:42.277Z,17.05
2018-08-10T00:23:48.753Z,16.97
2018-08-10T00:24:55.748Z,16.97
2018-08-10T00:26:01.712Z,16.92
2018-08-10T00:27:08.297Z,16.93
2018-08-10T00:28:14.668Z,16.94
2018-08-10T00:29:21.157Z,16.91
2018-08-10T00:30:27.635Z,16.93
2018-08-10T00:31:34.609Z,16.93
2018-08-10T00:32:40.591Z,16.84
2018-08-10T00:33:47.064Z,16.74
2018-08-10T00:34:53.549Z,16.63
2018-08-10T00:36:00.026Z,16.57
2018-08-10T00:37:06.499Z,16.49
2018-08-10T00:38:12.981Z,16.49
2018-08-10T00:39:19.448Z,16.52
2018-08-10T00:40:25.918Z,16.50
2018-08-10T00:41:32.391Z,16.52
2018-08-10T00:42:38.868Z,16.62
2018-08-10T00:43:45.329Z,16.77
2018-08-10T00:44:51.795Z,16.86
2018-08-10T00:45:58.262Z,16.87
2018-08-10T00:47:04.736Z,16.77
2018-08-10T00:48:11.206Z,16.64
2018-08-10T00:49:17.668Z,16.52
2018-08-10T00:50:24.124Z,16.44
2018-08-10T00:51:30.585Z,16.31
2018-08-10T00:52:37.044Z,16.20
2018-08-10T00:53:43.514Z,16.10
2018-08-10T00:54:49.990Z,16.03
2018-08-10T00:55:56.414Z,16.09
2018-08-10T00:57:02.892Z,16.07
2018-08-10T00:58:09.331Z,16.00
2018-08-10T00:59:15.793Z,15.92
2018-08-10T01:00:22.246Z,15.88
2018-08-10T01:01:28.707Z,15.78
2018-08-10T01:02:35.150Z,15.82
2018-08-10T01:03:42.608Z,15.78
2018-08-10T01:04:48.064Z,15.77
2018-08-10T01:05:54.501Z,15.87
2018-08-10T01:07:00.951Z,15.84
2018-08-10T01:08:07.412Z,15.77
2018-08-10T01:09:13.850Z,15.64
2018-08-10T01:10:20.309Z,15.59
2018-08-10T01:11:26.749Z,15.79
2018-08-10T01:12:33.289Z,15.88
2018-08-10T01:13:40.627Z,15.90
2018-08-10T01:14:46.081Z,15.83
2018-08-10T01:15:52.528Z,15.73
2018-08-10T01:16:58.950Z,15.77
2018-08-10T01:18:05.394Z,15.67
2018-08-10T01:19:11.854Z,15.60
2018-08-10T01:20:18.280Z,15.56
2018-08-10T01:21:24.708Z,15.58
2018-08-10T01:22:31.145Z,15.53
2018-08-10T01:23:37.585Z,15.45
2018-08-10T01:24:44.036Z,15.41
2018-08-10T01:25:50.452Z,15.42
2018-08-10T01:26:56.892Z,15.40
2018-08-10T01:28:03.315Z,15.37
2018-08-10T01:29:09.756Z,15.35
2018-08-10T01:30:16.196Z,15.31
2018-08-10T01:31:22.626Z,15.27
2018-08-10T01:32:29.054Z,15.28
2018-08-10T01:33:35.492Z,15.31
2018-08-10T01:34:41.946Z,15.33
2018-08-10T01:35:48.361Z,15.28
2018-08-10T01:36:54.799Z,15.33
2018-08-10T01:38:01.224Z,15.37
2018-08-10T01:39:07.678Z,15.52
2018-08-10T01:40:14.099Z,15.50
2018-08-10T01:41:20.526Z,15.49
2018-08-10T01:42:26.949Z,15.52
2018-08-10T01:43:34.385Z,15.52
2018-08-10T01:44:39.830Z,15.53
2018-08-10T01:45:46.253Z,15.56
2018-08-10T01:46:52.684Z,15.54
2018-08-10T01:47:59.122Z,15.49
2018-08-10T01:49:05.555Z,15.45
2018-08-10T01:50:11.989Z,15.46
2018-08-10T01:51:18.414Z,15.43
2018-08-10T01:52:24.845Z,15.39
2018-08-10T01:53:31.283Z,15.33
2018-08-10T01:54:37.709Z,15.27
2018-08-10T01:55:44.141Z,15.28
2018-08-10T01:56:50.565Z,15.28
2018-08-10T01:57:56.998Z,15.27
2018-08-10T01:59:03.415Z,15.23
2018-08-10T02:00:09.860Z,15.19
2018-08-10T02:01:16.282Z,15.15
2018-08-10T02:02:22.707Z,15.14
2018-08-10T02:03:29.143Z,15.13
2018-08-10T02:04:35.557Z,15.05
2018-08-10T02:05:41.995Z,15.04
2018-08-10T02:06:48.415Z,15.05
2018-08-10T02:07:54.834Z,14.98
2018-08-10T02:09:01.267Z,14.93
2018-08-10T02:10:07.698Z,14.89
2018-08-10T02:11:14.112Z,14.93
2018-08-10T02:12:20.539Z,15.05
2018-08-10T02:13:27.255Z,15.14
2018-08-10T02:14:33.375Z,15.17
2018-08-10T02:15:39.797Z,15.09
2018-08-10T02:16:47.210Z,15.06
2018-08-10T02:17:52.633Z,15.02
2018-08-10T02:18:59.047Z,14.97
2018-08-10T02:20:05.476Z,14.92
2018-08-10T02:21:11.892Z,14.95
2018-08-10T02:22:18.312Z,14.99
2018-08-10T02:23:24.732Z,14.96
2018-08-10T02:24:31.647Z,15.00
2018-08-10T02:25:37.573Z,14.99
2018-08-10T02:26:43.980Z,15.04
2018-08-10T02:27:50.412Z,15.23
2018-08-10T02:28:57.342Z,15.28
2018-08-10T02:30:03.252Z,15.31
2018-08-10T02:31:09.665Z,15.26
2018-08-10T02:32:16.092Z,15.20
2018-08-10T02:33:22.514Z,15.11
2018-08-10T02:34:28.924Z,15.05
2018-08-10T02:35:35.345Z,14.99
2018-08-10T02:36:41.757Z,14.93
2018-08-10T02:37:48.272Z,14.87
2018-08-10T02:38:54.585Z,14.86
2018-08-10T02:40:01.007Z,14.90
2018-08-10T02:41:07.404Z,14.92
2018-08-10T02:42:14.328Z,14.90
2018-08-10T02:43:20.245Z,14.88
2018-08-10T02:44:26.654Z,14.79
2018-08-10T02:45:33.077Z,14.69
2018-08-10T02:46:39.471Z,14.66
2018-08-10T02:47:45.894Z,14.64
2018-08-10T02:48:52.298Z,14.58
2018-08-10T02:49:58.708Z,14.51
2018-08-10T02:51:05.120Z,14.41
2018-08-10T02:52:11.526Z,14.41
2018-08-10T02:53:18.435Z,14.48
2018-08-10T02:54:24.343Z,14.56
2018-08-10T02:55:30.743Z,14.61
2018-08-10T02:56:37.151Z,14.65
2018-08-10T02:57:43.556Z,14.66
2018-08-10T02:58:49.966Z,14.62
2018-08-10T02:59:56.386Z,14.54
2018-08-10T03:01:02.789Z,14.47
2018-08-10T03:02:09.184Z,14.42
2018-08-10T03:03:16.086Z,14.43
2018-08-10T03:04:21.996Z,14.37
2018-08-10T03:05:28.405Z,14.31
2018-08-10T03:06:34.803Z,14.26
2018-08-10T03:07:41.194Z,14.21
2018-08-10T03:08:47.594Z,14.10
2018-08-10T03:09:53.996Z,14.02
2018-08-10T03:11:00.400Z,13.97
2018-08-10T03:12:06.792Z,14.00
2018-08-10T03:13:13.187Z,13.95
2018-08-10T03:14:19.574Z,13.96
2018-08-10T03:15:25.979Z,13.98
2018-08-10T03:16:32.360Z,13.96
2018-08-10T03:17:38.753Z,13.92
2018-08-10T03:18:45.142Z,14.00
2018-08-10T03:19:51.537Z,14.05
2018-08-10T03:20:57.931Z,14.03
2018-08-10T03:22:04.326Z,14.02
2018-08-10T03:23:10.719Z,14.04
2018-08-10T03:24:17.110Z,14.13
2018-08-10T03:25:23.501Z,14.10
2018-08-10T03:26:29.889Z,13.99
2018-08-10T03:27:36.286Z,13.94
2018-08-10T03:28:42.664Z,13.89
2018-08-10T03:29:49.064Z,13.87
2018-08-10T03:30:55.461Z,13.82
2018-08-10T03:32:01.837Z,13.72
2018-08-10T03:33:08.235Z,13.62
2018-08-10T03:34:14.612Z,13.55
2018-08-10T03:35:21.486Z,13.47
2018-08-10T03:36:27.408Z,13.45
2018-08-10T03:37:33.776Z,13.47
2018-08-10T03:38:40.656Z,13.56
2018-08-10T03:39:46.548Z,13.55
2018-08-10T03:40:52.944Z,13.49
2018-08-10T03:41:59.328Z,13.40
2018-08-10T03:43:05.703Z,13.29
2018-08-10T03:44:12.096Z,13.25
2018-08-10T03:45:18.482Z,13.26
2018-08-10T03:46:24.862Z,13.29
2018-08-10T03:47:31.243Z,13.32
2018-08-10T03:48:37.620Z,13.27
2018-08-10T03:49:44.053Z,13.33
2018-08-10T03:50:50.382Z,13.33
2018-08-10T03:51:56.754Z,13.35
2018-08-10T03:53:03.155Z,13.39
2018-08-10T03:54:09.515Z,13.42
2018-08-10T03:55:15.888Z,13.42
2018-08-10T03:56:22.273Z,13.32
2018-08-10T03:57:28.642Z,13.25
2018-08-10T03:58:35.036Z,13.28
2018-08-10T03:59:41.407Z,13.27
2018-08-10T04:00:47.784Z,13.18
2018-08-10T04:01:54.143Z,13.10
2018-08-10T04:03:00.519Z,13.07
2018-08-10T04:04:06.912Z,13.05
2018-08-10T04:05:13.265Z,13.04
2018-08-10T04:06:19.651Z,13.03
2018-08-10T04:07:26.022Z,13.03
2018-08-10T04:08:33.379Z,13.01
2018-08-10T04:09:38.754Z,12.97
2018-08-10T04:10:45.134Z,12.93
2018-08-10T04:11:51.504Z,12.87
2018-08-10T04:12:57.866Z,12.84
2018-08-10T04:14:04.237Z,12.85
2018-08-10T04:15:10.617Z,12.86
2018-08-10T04:16:17.482Z,12.84
2018-08-10T04:17:23.337Z,12.87
2018-08-10T04:18:29.710Z,12.88
2018-08-10T04:19:36.070Z,12.91
2018-08-10T04:20:42.932Z,12.90
2018-08-10T04:21:48.821Z,12.85
2018-08-10T04:22:55.172Z,12.86
2018-08-10T04:24:01.548Z,12.90
2018-08-10T04:25:07.911Z,12.92
2018-08-10T04:26:14.280Z,12.97
2018-08-10T04:27:20.660Z,12.95
2018-08-10T04:28:27.005Z,12.92
2018-08-10T04:29:33.373Z,12.90
2018-08-10T04:30:39.729Z,12.91
2018-08-10T04:31:46.105Z,12.96
2018-08-10T04:32:52.451Z,12.94
2018-08-10T04:33:58.807Z,12.97
2018-08-10T04:35:05.184Z,13.07
2018-08-10T04:36:11.546Z,13.09
2018-08-10T04:37:17.920Z,13.05
2018-08-10T04:38:24.299Z,13.05
2018-08-10T04:39:30.634Z,13.07
2018-08-10T04:40:36.991Z,13.04
2018-08-10T04:41:43.861Z,12.97
2018-08-10T04:42:49.719Z,12.96
2018-08-10T04:43:56.576Z,12.93
2018-08-10T04:45:02.449Z,12.86
2018-08-10T04:46:08.835Z,12.92
2018-08-10T04:47:15.170Z,12.90
2018-08-10T04:48:21.528Z,12.86
2018-08-10T04:49:27.879Z,12.85
2018-08-10T04:50:34.239Z,12.86
2018-08-10T04:51:40.626Z,12.86
2018-08-10T04:52:46.982Z,12.80
2018-08-10T04:53:53.345Z,12.84
2018-08-10T04:54:59.770Z,12.93
2018-08-10T04:56:06.079Z,12.92
2018-08-10T04:57:12.415Z,12.86
2018-08-10T04:58:18.780Z,12.77
2018-08-10T04:59:25.150Z,12.75
2018-08-10T05:00:31.521Z,12.79
2018-08-10T05:01:37.879Z,12.83
2018-08-10T05:02:44.233Z,12.86
2018-08-10T05:03:50.620Z,12.85
2018-08-10T05:04:56.945Z,12.87
2018-08-10T05:06:03.316Z,12.93
2018-08-10T05:07:09.689Z,13.01
2018-08-10T05:08:16.042Z,13.15
2018-08-10T05:09:22.401Z,13.22
2018-08-10T05:10:28.776Z,13.26
2018-08-10T05:11:35.162Z,13.26
2018-08-10T05:12:41.500Z,13.28
2018-08-10T05:13:47.865Z,13.33
2018-08-10T05:14:54.222Z,13.36
2018-08-10T05:16:00.602Z,13.35
2018-08-10T05:17:06.981Z,13.31
2018-08-10T05:18:13.335Z,13.30
2018-08-10T05:19:19.692Z,13.37
2018-08-10T05:20:26.067Z,13.45
2018-08-10T05:21:32.438Z,13.54
2018-08-10T05:22:38.802Z,13.56
2018-08-10T05:23:45.173Z,13.56
2018-08-10T05:24:51.552Z,13.58
2018-08-10T05:25:57.935Z,13.60
2018-08-10T05:27:04.316Z,13.70
2018-08-10T05:28:10.678Z,13.72
2018-08-10T05:29:17.062Z,13.69
2018-08-10T05:30:23.441Z,13.73
2018-08-10T05:31:29.834Z,13.77
2018-08-10T05:32:36.207Z,13.83
2018-08-10T05:33:42.582Z,13.86
2018-08-10T05:34:49.037Z,13.85
2018-08-10T05:35:55.341Z,13.87
2018-08-10T05:37:01.739Z,13.95
2018-08-10T05:38:08.120Z,14.03
2018-08-10T05:39:14.523Z,14.05
2018-08-10T05:40:20.897Z,14.06
2018-08-10T05:41:27.301Z,14.07
2018-08-10T05:42:33.712Z,14.11
2018-08-10T05:43:40.073Z,14.08
2018-08-10T05:44:46.457Z,14.03
2018-08-10T05:45:52.869Z,14.07
2018-08-10T05:46:59.340Z,14.13
2018-08-10T05:48:05.723Z,14.19
2018-08-10T05:49:12.021Z,14.27
2018-08-10T05:50:18.420Z,14.31
2018-08-10T05:51:24.820Z,14.36
2018-08-10T05:52:31.328Z,14.34
2018-08-10T05:53:37.609Z,14.36
2018-08-10T05:54:44.009Z,14.36
2018-08-10T05:55:50.909Z,14.45
2018-08-10T05:56:56.818Z,14.55
2018-08-10T05:58:03.210Z,14.51
2018-08-10T05:59:09.619Z,14.42
2018-08-10T06:00:16.001Z,14.35
2018-08-10T06:01:22.411Z,14.41
2018-08-10T06:02:28.816Z,14.52
2018-08-10T06:03:35.250Z,14.52
2018-08-10T06:04:41.618Z,14.55
2018-08-10T06:05:48.014Z,14.56
2018-08-10T06:06:54.436Z,14.56
2018-08-10T06:08:00.836Z,14.56
2018-08-10T06:09:07.247Z,14.60
2018-08-10T06:10:13.645Z,14.63
2018-08-10T06:11:20.056Z,14.66
2018-08-10T06:12:26.474Z,14.72
2018-08-10T06:13:32.889Z,14.78
2018-08-10T06:14:39.792Z,14.80
2018-08-10T06:15:45.711Z,14.79
2018-08-10T06:16:52.131Z,14.77
2018-08-10T06:17:58.543Z,14.80
2018-08-10T06:19:04.973Z,14.87
2018-08-10T06:20:11.377Z,14.92
2018-08-10T06:21:17.789Z,14.95
2018-08-10T06:22:24.210Z,14.99
2018-08-10T06:23:30.623Z,15.07
2018-08-10T06:24:37.045Z,15.12
2018-08-10T06:25:43.472Z,15.16
2018-08-10T06:26:50.387Z,15.21
2018-08-10T06:27:56.469Z,15.21
2018-08-10T06:29:02.753Z,15.23
2018-08-10T06:30:09.177Z,15.33
2018-08-10T06:31:15.603Z,15.42
2018-08-10T06:32:22.050Z,15.54
2018-08-10T06:33:28.468Z,15.62
2018-08-10T06:34:34.901Z,15.72
2018-08-10T06:35:41.336Z,15.84
2018-08-10T06:36:47.801Z,15.97
2018-08-10T06:37:54.227Z,16.21
2018-08-10T06:39:00.692Z,16.48
2018-08-10T06:40:07.150Z,16.87
2018-08-10T06:41:13.627Z,17.28
2018-08-10T06:42:20.115Z,17.55
2018-08-10T06:43:26.593Z,17.86
2018-08-10T06:44:33.084Z,18.20
2018-08-10T06:45:39.589Z,18.50
2018-08-10T06:46:46.085Z,18.77
2018-08-10T06:47:52.602Z,18.90
2018-08-10T06:48:59.105Z,18.89
2018-08-10T06:50:05.625Z,18.76
2018-08-10T06:51:12.172Z,18.53
2018-08-10T06:52:18.649Z,18.30
2018-08-10T06:53:25.144Z,18.10
2018-08-10T06:54:31.647Z,18.01
2018-08-10T06:55:38.198Z,17.98
2018-08-10T06:56:44.680Z,18.06
2018-08-10T06:57:51.213Z,18.20
2018-08-10T06:58:57.705Z,18.40
2018-08-10T07:00:04.232Z,18.55
2018-08-10T07:01:10.818Z,18.63
2018-08-10T07:02:17.286Z,18.62
2018-08-10T07:03:23.804Z,18.53
2018-08-10T07:04:30.323Z,18.48
2018-08-10T07:05:36.861Z,18.50
2018-08-10T07:06:43.391Z,18.56
2018-08-10T07:07:49.981Z,18.61
2018-08-10T07:08:56.489Z,18.59
2018-08-10T07:10:03.041Z,18.46
2018-08-10T07:11:10.585Z,18.29
2018-08-10T07:12:16.145Z,18.15
2018-08-10T07:13:22.854Z,18.06
2018-08-10T07:14:29.738Z,17.94
2018-08-10T07:15:35.769Z,17.92
2018-08-10T07:16:42.321Z,18.01
2018-08-10T07:17:48.870Z,18.13
2018-08-10T07:18:55.904Z,18.32
2018-08-10T07:20:01.955Z,18.47
2018-08-10T07:21:08.513Z,18.54
2018-08-10T07:22:15.073Z,18.55
2018-08-10T07:23:21.630Z,18.57
2018-08-10T07:24:29.177Z,18.72
2018-08-10T07:25:34.758Z,19.01
2018-08-10T07:26:41.323Z,19.26
2018-08-10T07:27:47.895Z,19.41
2018-08-10T07:28:54.465Z,19.54
2018-08-10T07:30:01.041Z,19.61
2018-08-10T07:31:07.605Z,19.59
2018-08-10T07:32:14.286Z,19.44
2018-08-10T07:33:20.780Z,19.16
2018-08-10T07:34:27.355Z,19.01
2018-08-10T07:35:33.937Z,18.89
2018-08-10T07:36:40.514Z,18.86
2018-08-10T07:37:47.101Z,18.90
2018-08-10T07:38:53.668Z,18.91
2018-08-10T07:40:00.244Z,18.78
2018-08-10T07:41:06.808Z,18.55
2018-08-10T07:42:13.404Z,18.43
2018-08-10T07:43:19.967Z,18.38
2018-08-10T07:44:26.510Z,18.41
2018-08-10T07:45:33.074Z,18.43
2018-08-10T07:46:39.632Z,18.40
2018-08-10T07:47:46.282Z,18.39
2018-08-10T07:48:52.746Z,18.36
2018-08-10T07:49:59.310Z,18.44
2018-08-10T07:51:05.872Z,18.56
2018-08-10T07:52:12.516Z,18.80
2018-08-10T07:53:19.038Z,19.10
2018-08-10T07:54:25.604Z,19.30
2018-08-10T07:55:32.190Z,19.47
2018-08-10T07:56:38.779Z,19.72
2018-08-10T07:57:45.395Z,19.93
2018-08-10T07:58:52.015Z,20.18
2018-08-10T07:59:58.585Z,20.33
2018-08-10T08:01:05.204Z,20.45
2018-08-10T08:02:11.808Z,20.55
2018-08-10T08:03:18.510Z,20.78
2018-08-10T08:04:25.068Z,21.01
2018-08-10T08:05:31.699Z,21.20
2018-08-10T08:06:38.337Z,21.27
2018-08-10T08:07:44.985Z,21.33
2018-08-10T08:08:51.619Z,21.20
2018-08-10T08:09:58.270Z,21.20
2018-08-10T08:11:05.417Z,21.13
2018-08-10T08:12:11.568Z,21.17
2018-08-10T08:13:18.259Z,21.39
2018-08-10T08:14:24.895Z,21.53
2018-08-10T08:15:31.578Z,21.60
2018-08-10T08:16:38.222Z,21.53
2018-08-10T08:17:44.875Z,21.54
2018-08-10T08:18:51.530Z,21.49
2018-08-10T08:19:58.315Z,21.60
2018-08-10T08:21:04.837Z,21.74
2018-08-10T08:22:11.492Z,21.88
2018-08-10T08:23:18.161Z,22.00
2018-08-10T08:24:25.003Z,22.25
2018-08-10T08:25:31.481Z,22.42
2018-08-10T08:26:38.147Z,22.52
2018-08-10T08:27:45.821Z,22.46
2018-08-10T08:28:51.477Z,22.28
2018-08-10T08:29:58.266Z,22.02
2018-08-10T08:31:04.826Z,21.78
2018-08-10T08:32:11.488Z,21.63
2018-08-10T08:33:18.183Z,21.82
2018-08-10T08:34:24.855Z,22.09
2018-08-10T08:35:31.534Z,22.27
2018-08-10T08:36:38.222Z,22.33
2018-08-10T08:37:44.913Z,22.28
2018-08-10T08:38:51.589Z,22.13
2018-08-10T08:39:58.266Z,21.92
2018-08-10T08:41:04.980Z,21.84
2018-08-10T08:42:11.824Z,21.84
2018-08-10T08:43:18.321Z,21.95
2018-08-10T08:44:24.986Z,22.00
2018-08-10T08:45:31.770Z,21.99
2018-08-10T08:46:39.108Z,21.94
2018-08-10T08:47:45.049Z,21.84
2018-08-10T08:48:51.725Z,21.78
2018-08-10T08:49:58.416Z,21.73
2018-08-10T08:51:05.091Z,21.81
2018-08-10T08:52:11.799Z,21.88
2018-08-10T08:53:18.499Z,22.00
2018-08-10T08:54:25.183Z,22.05
2018-08-10T08:55:31.877Z,22.12
2018-08-10T08:56:39.072Z,21.98
2018-08-10T08:57:45.272Z,21.72
2018-08-10T08:58:51.959Z,21.59
2018-08-10T08:59:58.654Z,21.65
2018-08-10T09:01:05.353Z,21.84
2018-08-10T09:02:12.063Z,22.07
2018-08-10T09:03:18.774Z,22.20
2018-08-10T09:04:25.470Z,22.29
2018-08-10T09:05:32.184Z,22.36
2018-08-10T09:06:38.884Z,22.26
2018-08-10T09:07:45.660Z,22.02
2018-08-10T09:08:52.271Z,21.71
2018-08-10T09:09:59.011Z,21.65
2018-08-10T09:11:05.722Z,21.71
2018-08-10T09:12:12.361Z,21.77
2018-08-10T09:13:19.064Z,21.73
2018-08-10T09:14:26.249Z,21.66
2018-08-10T09:15:32.429Z,21.56
2018-08-10T09:16:39.117Z,21.50
2018-08-10T09:17:45.809Z,21.57
2018-08-10T09:18:52.522Z,21.68
2018-08-10T09:19:59.713Z,22.01
2018-08-10T09:21:05.931Z,22.30
2018-08-10T09:22:12.642Z,22.50
2018-08-10T09:23:19.410Z,22.56
2018-08-10T09:24:26.106Z,22.70
2018-08-10T09:25:32.828Z,22.90
2018-08-10T09:26:39.563Z,23.09
2018-08-10T09:27:46.315Z,23.29
2018-08-10T09:28:53.075Z,23.54
2018-08-10T09:29:59.829Z,23.68
2018-08-10T09:31:06.581Z,23.45
2018-08-10T09:32:13.342Z,23.38
2018-08-10T09:33:20.612Z,23.31
2018-08-10T09:34:26.861Z,23.23
2018-08-10T09:35:33.588Z,23.04
2018-08-10T09:36:40.336Z,22.76
2018-08-10T09:37:48.064Z,22.67
2018-08-10T09:38:53.799Z,22.61
2018-08-10T09:40:00.533Z,22.55
2018-08-10T09:41:07.240Z,22.46
2018-08-10T09:42:13.998Z,22.41
2018-08-10T09:43:20.683Z,22.37
2018-08-10T09:44:27.397Z,22.52
2018-08-10T09:45:34.124Z,22.74
2018-08-10T09:46:40.840Z,22.95
2018-08-10T09:47:47.591Z,23.03
2018-08-10T09:48:54.302Z,22.97
2018-08-10T09:50:01.026Z,22.92
2018-08-10T09:51:07.752Z,22.74
2018-08-10T09:52:14.482Z,22.61
2018-08-10T09:53:21.196Z,22.68
2018-08-10T09:54:27.913Z,23.05
2018-08-10T09:55:34.628Z,23.66
2018-08-10T09:56:41.868Z,24.11
2018-08-10T09:57:48.144Z,24.52
2018-08-10T09:58:55.899Z,24.93
2018-08-10T10:00:01.681Z,25.10
2018-08-10T10:01:08.464Z,25.17
2018-08-10T10:02:15.241Z,25.19
2018-08-10T10:03:22.049Z,25.30
2018-08-10T10:04:28.838Z,25.23
2018-08-10T10:05:35.642Z,25.25
2018-08-10T10:06:42.497Z,25.44
2018-08-10T10:07:49.247Z,25.74
2018-08-10T10:08:56.094Z,25.92
2018-08-10T10:10:02.844Z,26.02
2018-08-10T10:11:09.641Z,26.04
2018-08-10T10:12:16.465Z,26.09
2018-08-10T10:13:23.284Z,26.04
2018-08-10T10:14:30.078Z,26.20
2018-08-10T10:15:36.889Z,26.36
2018-08-10T10:16:43.687Z,26.50
2018-08-10T10:17:50.509Z,26.57
2018-08-10T10:18:57.324Z,26.52
2018-08-10T10:20:04.141Z,26.52
2018-08-10T10:21:11.072Z,26.35
2018-08-10T10:22:17.808Z,26.11
2018-08-10T10:23:24.643Z,26.16
2018-08-10T10:24:31.481Z,26.08
2018-08-10T10:25:38.294Z,26.10
2018-08-10T10:26:45.116Z,25.93
2018-08-10T10:27:51.946Z,25.86
2018-08-10T10:28:58.776Z,25.89
2018-08-10T10:30:05.596Z,26.01
2018-08-10T10:31:12.432Z,26.05
2018-08-10T10:32:19.270Z,26.10
2018-08-10T10:33:27.103Z,25.57
2018-08-10T10:34:32.976Z,25.58
2018-08-10T10:35:39.779Z,25.41
2018-08-10T10:36:46.605Z,25.40
2018-08-10T10:37:53.431Z,25.63
2018-08-10T10:39:00.269Z,26.02
2018-08-10T10:40:07.108Z,26.20
2018-08-10T10:41:13.927Z,26.25
2018-08-10T10:42:20.782Z,26.17
2018-08-10T10:43:27.608Z,26.05
2018-08-10T10:44:34.451Z,25.86
2018-08-10T10:45:41.256Z,25.46
2018-08-10T10:46:48.087Z,25.40
2018-08-10T10:47:54.876Z,25.54
2018-08-10T10:49:01.701Z,25.93
2018-08-10T10:50:08.504Z,26.01
2018-08-10T10:51:15.325Z,25.98
2018-08-10T10:52:22.676Z,25.99
2018-08-10T10:53:28.954Z,25.93
2018-08-10T10:54:35.764Z,26.03
2018-08-10T10:55:42.575Z,26.30
2018-08-10T10:56:49.496Z,26.82
2018-08-10T10:57:56.240Z,27.29
2018-08-10T10:59:03.092Z,27.54
2018-08-10T11:00:09.945Z,27.55
2018-08-10T11:01:16.808Z,27.61
2018-08-10T11:02:23.682Z,27.76
2018-08-10T11:03:30.548Z,27.53
2018-08-10T11:04:37.426Z,27.24
2018-08-10T11:05:44.302Z,27.50
2018-08-10T11:06:51.195Z,27.82
2018-08-10T11:07:58.069Z,27.61
2018-08-10T11:09:04.962Z,27.28
2018-08-10T11:10:11.839Z,26.99
2018-08-10T11:11:18.712Z,26.82
2018-08-10T11:12:25.581Z,26.37
2018-08-10T11:13:32.424Z,26.19
2018-08-10T11:14:39.272Z,25.99
2018-08-10T11:15:46.096Z,25.79
2018-08-10T11:16:52.924Z,25.70
2018-08-10T11:17:59.793Z,25.54
2018-08-10T11:19:06.574Z,25.44
2018-08-10T11:20:13.383Z,25.29
2018-08-10T11:21:20.181Z,25.05
2018-08-10T11:22:26.974Z,24.81
2018-08-10T11:23:33.739Z,24.56
2018-08-10T11:24:40.999Z,24.37
2018-08-10T11:25:47.375Z,24.25
2018-08-10T11:26:54.013Z,24.14
2018-08-10T11:28:00.747Z,23.95
2018-08-10T11:29:07.484Z,23.86
2018-08-10T11:30:14.230Z,23.84
2018-08-10T11:31:21.445Z,23.83
2018-08-10T11:32:27.691Z,24.08
2018-08-10T11:33:34.431Z,24.09
2018-08-10T11:34:41.177Z,24.01
2018-08-10T11:35:48.212Z,23.97
2018-08-10T11:36:54.657Z,23.91
2018-08-10T11:38:01.392Z,23.90
2018-08-10T11:39:08.134Z,23.92
2018-08-10T11:40:14.878Z,24.15
2018-08-10T11:41:21.660Z,24.36
2018-08-10T11:42:28.364Z,24.62
2018-08-10T11:43:35.123Z,24.80
2018-08-10T11:44:41.879Z,24.86
2018-08-10T11:45:49.116Z,24.75
2018-08-10T11:46:55.384Z,24.57
2018-08-10T11:48:02.632Z,24.31
2018-08-10T11:49:09.382Z,23.94
2018-08-10T11:50:15.626Z,23.70
2018-08-10T11:51:22.352Z,23.49
2018-08-10T11:52:29.121Z,23.29
2018-08-10T11:53:35.803Z,23.11
2018-08-10T11:54:42.512Z,22.97
2018-08-10T11:55:49.210Z,22.88
2018-08-10T11:56:55.927Z,22.77
2018-08-10T11:58:02.628Z,22.69
2018-08-10T11:59:09.334Z,22.36
2018-08-10T12:00:16.020Z,22.19
2018-08-10T12:01:22.714Z,22.08
2018-08-10T12:02:29.394Z,21.99
2018-08-10T12:03:36.091Z,21.86
2018-08-10T12:04:42.803Z,21.81
2018-08-10T12:05:49.511Z,21.71
2018-08-10T12:06:56.140Z,21.65
2018-08-10T12:08:02.847Z,21.71
2018-08-10T12:09:09.582Z,21.79
2018-08-10T12:10:18.794Z,22.25
2018-08-10T12:11:23.218Z,22.75
2018-08-10T12:12:30.166Z,23.15
2018-08-10T12:13:37.045Z,23.60
2018-08-10T12:14:43.931Z,23.87
2018-08-10T12:15:50.801Z,23.72
2018-08-10T12:16:57.665Z,23.62
2018-08-10T12:18:04.513Z,23.54
2018-08-10T12:19:12.875Z,23.54
2018-08-10T12:20:18.301Z,23.64
2018-08-10T12:21:24.999Z,23.72
2018-08-10T12:22:31.817Z,23.77
2018-08-10T12:23:38.629Z,23.90
2018-08-10T12:24:45.558Z,24.09
2018-08-10T12:25:52.261Z,24.23
2018-08-10T12:26:59.054Z,24.40
2018-08-10T12:28:05.863Z,24.41
2018-08-10T12:29:12.669Z,24.50
2018-08-10T12:30:19.562Z,24.49
2018-08-10T12:31:26.263Z,24.51
2018-08-10T12:32:33.053Z,24.39
2018-08-10T12:33:39.844Z,24.06
2018-08-10T12:34:46.638Z,23.98
2018-08-10T12:35:53.432Z,23.91
2018-08-10T12:37:00.194Z,23.73
2018-08-10T12:38:06.977Z,23.52
2018-08-10T12:39:13.742Z,23.53
2018-08-10T12:40:20.494Z,23.52
2018-08-10T12:41:27.245Z,23.53
2018-08-10T12:42:34.476Z,23.60
2018-08-10T12:43:40.730Z,23.67
2018-08-10T12:44:47.482Z,23.69
2018-08-10T12:45:54.206Z,23.68
2018-08-10T12:47:00.929Z,23.59
2018-08-10T12:48:07.683Z,23.47
2018-08-10T12:49:14.370Z,23.33
2018-08-10T12:50:21.182Z,23.26
2018-08-10T12:51:28.302Z,23.07
2018-08-10T12:52:34.510Z,22.67
2018-08-10T12:53:41.710Z,22.43
2018-08-10T12:54:47.936Z,22.00
2018-08-10T12:55:54.628Z,21.52
2018-08-10T12:57:01.338Z,21.02
2018-08-10T12:58:08.038Z,20.61
2018-08-10T12:59:14.727Z,20.43
2018-08-10T13:00:21.447Z,20.49
2018-08-10T13:01:28.147Z,20.72
2018-08-10T13:02:34.939Z,20.82
2018-08-10T13:03:41.678Z,21.41
2018-08-10T13:04:48.569Z,21.73
2018-08-10T13:05:55.515Z,22.00
2018-08-10T13:07:02.531Z,22.15
2018-08-10T13:08:09.572Z,22.08
2018-08-10T13:09:16.646Z,22.01
2018-08-10T13:10:23.783Z,21.79
2018-08-10T13:11:30.926Z,21.53
2018-08-10T13:12:38.122Z,21.48
2018-08-10T13:13:45.353Z,21.46
2018-08-10T13:14:53.120Z,21.53
2018-08-10T13:15:59.908Z,21.71
2018-08-10T13:17:07.280Z,21.72
2018-08-10T13:18:14.520Z,21.67
2018-08-10T13:19:21.860Z,21.61
2018-08-10T13:20:29.243Z,21.72
2018-08-10T13:21:36.621Z,22.11
2018-08-10T13:22:44.026Z,22.60
2018-08-10T13:23:51.526Z,23.14
2018-08-10T13:24:58.932Z,23.73
2018-08-10T13:26:06.397Z,24.30
2018-08-10T13:27:13.897Z,24.98
2018-08-10T13:28:21.386Z,25.65
2018-08-10T13:29:28.914Z,26.14
2018-08-10T13:30:36.425Z,26.58
2018-08-10T13:31:44.415Z,27.00
2018-08-10T13:32:51.413Z,27.15
2018-08-10T13:33:59.020Z,27.18
2018-08-10T13:35:07.277Z,26.98
2018-08-10T13:36:13.585Z,26.80
2018-08-10T13:37:20.901Z,26.85
2018-08-10T13:38:28.255Z,26.93
2018-08-10T13:39:35.564Z,27.04
2018-08-10T13:40:42.924Z,27.00
2018-08-10T13:41:50.300Z,27.33
2018-08-10T13:42:57.709Z,27.64
2018-08-10T13:44:05.130Z,27.91
2018-08-10T13:45:12.545Z,27.74
2018-08-10T13:46:19.927Z,27.79
2018-08-10T13:47:27.292Z,28.02
2018-08-10T13:48:34.681Z,27.69
2018-08-10T13:49:42.095Z,27.95
2018-08-10T13:50:49.532Z,28.04
2018-08-10T13:51:56.926Z,27.78
2018-08-10T13:53:04.309Z,27.62
2018-08-10T13:54:11.689Z,27.81
2018-08-10T13:55:19.096Z,27.97
2018-08-10T13:56:26.503Z,28.23
2018-08-10T13:57:33.938Z,28.22
2018-08-10T13:58:41.405Z,28.18
2018-08-10T13:59:48.835Z,28.21
2018-08-10T14:00:56.301Z,28.43
2018-08-10T14:02:03.775Z,28.36
2018-08-10T14:03:11.262Z,28.40
2018-08-10T14:04:18.749Z,28.48
2018-08-10T14:05:26.253Z,28.36
2018-08-10T14:06:33.797Z,28.23
2018-08-10T14:07:41.289Z,27.91
2018-08-10T14:08:48.810Z,27.96
2018-08-10T14:09:56.344Z,28.34
2018-08-10T14:11:03.884Z,28.62
2018-08-10T14:12:11.422Z,28.57
2018-08-10T14:13:18.946Z,28.45
2018-08-10T14:14:26.411Z,28.40
2018-08-10T14:15:33.858Z,28.20
2018-08-10T14:16:41.246Z,27.80
2018-08-10T14:17:48.609Z,27.77